sensor_id;sensor_type;location;lat;lon;timestamp;pressure;altitude;pressure_sealevel;temperature;humidity
10946;BME280;5525;42.648;23.368;2023-12-20T00:01:11;95103.78;;;0.41;100.00
10946;BME280;5525;42.648;23.368;2023-12-20T00:03:39;95099.28;;;0.41;100.00
10946;BME280;5525;42.648;23.368;2023-12-20T00:06:06;95094.06;;;0.51;100.00
10946;BME280;5525;42.648;23.368;2023-12-20T00:08:32;95092.41;;;0.45;100.00
10946;BME280;5525;42.648;23.368;2023-12-20T00:10:59;95097.56;;;0.30;100.00
10946;BME280;5525;42.648;23.368;2023-12-20T00:13:26;95102.91;;;0.09;100.00
10946;BME280;5525;42.648;23.368;2023-12-20T00:15:53;95095.09;;;0.24;100.00
10946;BME280;5525;42.648;23.368;2023-12-20T00:18:20;95096.41;;;0.21;100.00
10946;BME280;5525;42.648;23.368;2023-12-20T00:20:48;95088.16;;;0.44;100.00
10946;BME280;5525;42.648;23.368;2023-12-20T00:23:15;95083.69;;;0.50;100.00
10946;BME280;5525;42.648;23.368;2023-12-20T00:25:42;95085.31;;;0.51;100.00
10946;BME280;5525;42.648;23.368;2023-12-20T00:28:08;95085.66;;;0.59;100.00
10946;BME280;5525;42.648;23.368;2023-12-20T00:30:35;95082.09;;;0.49;100.00
10946;BME280;5525;42.648;23.368;2023-12-20T00:33:02;95076.22;;;0.73;100.00
10946;BME280;5525;42.648;23.368;2023-12-20T00:35:29;95071.00;;;0.88;100.00
10946;BME280;5525;42.648;23.368;2023-12-20T00:37:58;95062.06;;;0.99;100.00
10946;BME280;5525;42.648;23.368;2023-12-20T00:40:24;95067.44;;;1.04;100.00
10946;BME280;5525;42.648;23.368;2023-12-20T00:42:51;95056.75;;;0.99;100.00
10946;BME280;5525;42.648;23.368;2023-12-20T00:45:18;95054.19;;;0.78;100.00
10946;BME280;5525;42.648;23.368;2023-12-20T00:47:45;95052.94;;;0.59;100.00
10946;BME280;5525;42.648;23.368;2023-12-20T00:50:12;95046.66;;;0.38;100.00
10946;BME280;5525;42.648;23.368;2023-12-20T00:52:39;95042.94;;;0.39;100.00
10946;BME280;5525;42.648;23.368;2023-12-20T00:55:07;95043.63;;;0.25;100.00
10946;BME280;5525;42.648;23.368;2023-12-20T00:57:34;95043.84;;;0.23;100.00
10946;BME280;5525;42.648;23.368;2023-12-20T01:00:01;95033.22;;;0.23;100.00
10946;BME280;5525;42.648;23.368;2023-12-20T01:02:28;95035.41;;;0.26;100.00
10946;BME280;5525;42.648;23.368;2023-12-20T01:04:55;95035.88;;;0.23;100.00
10946;BME280;5525;42.648;23.368;2023-12-20T01:07:22;95025.22;;;0.18;100.00
10946;BME280;5525;42.648;23.368;2023-12-20T01:09:49;95018.34;;;0.22;100.00
10946;BME280;5525;42.648;23.368;2023-12-20T01:12:17;95021.81;;;0.23;100.00
10946;BME280;5525;42.648;23.368;2023-12-20T01:14:45;95029.66;;;0.13;100.00
10946;BME280;5525;42.648;23.368;2023-12-20T01:17:12;95020.31;;;0.05;100.00
10946;BME280;5525;42.648;23.368;2023-12-20T01:19:39;95026.00;;;0.19;100.00
10946;BME280;5525;42.648;23.368;2023-12-20T01:22:06;95019.94;;;0.23;100.00
10946;BME280;5525;42.648;23.368;2023-12-20T01:24:33;95013.34;;;0.26;100.00
10946;BME280;5525;42.648;23.368;2023-12-20T01:26:59;95014.63;;;0.23;100.00
10946;BME280;5525;42.648;23.368;2023-12-20T01:29:28;95001.47;;;0.33;100.00
10946;BME280;5525;42.648;23.368;2023-12-20T01:31:54;94998.22;;;0.26;100.00
10946;BME280;5525;42.648;23.368;2023-12-20T01:34:21;95004.63;;;0.30;100.00
10946;BME280;5525;42.648;23.368;2023-12-20T01:36:48;94993.41;;;0.55;100.00
10946;BME280;5525;42.648;23.368;2023-12-20T01:39:15;94992.25;;;0.72;100.00
10946;BME280;5525;42.648;23.368;2023-12-20T01:41:41;94984.84;;;0.79;100.00
10946;BME280;5525;42.648;23.368;2023-12-20T01:44:08;94979.81;;;0.83;100.00
10946;BME280;5525;42.648;23.368;2023-12-20T01:46:36;94984.28;;;0.77;100.00
10946;BME280;5525;42.648;23.368;2023-12-20T01:49:03;94970.47;;;0.80;100.00
10946;BME280;5525;42.648;23.368;2023-12-20T01:51:32;94971.56;;;0.79;100.00
10946;BME280;5525;42.648;23.368;2023-12-20T01:53:59;94967.00;;;0.75;100.00
10946;BME280;5525;42.648;23.368;2023-12-20T01:56:28;94960.88;;;0.74;100.00
10946;BME280;5525;42.648;23.368;2023-12-20T01:58:56;94955.25;;;0.66;100.00
10946;BME280;5525;42.648;23.368;2023-12-20T02:01:23;94961.59;;;0.60;100.00
10946;BME280;5525;42.648;23.368;2023-12-20T02:03:52;94952.56;;;0.61;100.00
10946;BME280;5525;42.648;23.368;2023-12-20T02:06:21;94946.16;;;0.62;100.00
10946;BME280;5525;42.648;23.368;2023-12-20T02:08:49;94952.41;;;0.41;100.00
10946;BME280;5525;42.648;23.368;2023-12-20T02:11:16;94943.59;;;0.35;100.00
10946;BME280;5525;42.648;23.368;2023-12-20T02:13:43;94935.13;;;0.43;100.00
10946;BME280;5525;42.648;23.368;2023-12-20T02:16:10;94947.66;;;0.43;100.00
10946;BME280;5525;42.648;23.368;2023-12-20T02:18:37;94937.53;;;0.40;100.00
10946;BME280;5525;42.648;23.368;2023-12-20T02:21:06;94943.09;;;0.43;100.00
10946;BME280;5525;42.648;23.368;2023-12-20T02:23:34;94930.06;;;0.37;100.00
10946;BME280;5525;42.648;23.368;2023-12-20T02:26:01;94935.59;;;0.30;100.00
10946;BME280;5525;42.648;23.368;2023-12-20T02:28:29;94935.28;;;0.27;100.00
10946;BME280;5525;42.648;23.368;2023-12-20T02:30:56;94934.72;;;0.20;100.00
10946;BME280;5525;42.648;23.368;2023-12-20T02:33:23;94926.94;;;0.13;100.00
10946;BME280;5525;42.648;23.368;2023-12-20T02:35:50;94925.69;;;-0.06;100.00
10946;BME280;5525;42.648;23.368;2023-12-20T02:38:18;94917.59;;;0.06;100.00
10946;BME280;5525;42.648;23.368;2023-12-20T02:40:46;94920.81;;;-0.19;100.00
10946;BME280;5525;42.648;23.368;2023-12-20T02:43:13;94917.72;;;-0.11;100.00
10946;BME280;5525;42.648;23.368;2023-12-20T02:45:39;94910.34;;;-0.04;100.00
10946;BME280;5525;42.648;23.368;2023-12-20T02:48:07;94901.91;;;0.04;100.00
10946;BME280;5525;42.648;23.368;2023-12-20T02:50:34;94916.31;;;-0.19;100.00
10946;BME280;5525;42.648;23.368;2023-12-20T02:53:01;94915.31;;;-0.39;100.00
10946;BME280;5525;42.648;23.368;2023-12-20T02:55:27;94908.09;;;-0.44;100.00
10946;BME280;5525;42.648;23.368;2023-12-20T02:57:56;94907.88;;;-0.64;100.00
10946;BME280;5525;42.648;23.368;2023-12-20T03:00:22;94913.28;;;-1.02;100.00
10946;BME280;5525;42.648;23.368;2023-12-20T03:02:49;94914.41;;;-1.36;100.00
10946;BME280;5525;42.648;23.368;2023-12-20T03:05:16;94914.09;;;-1.18;100.00
10946;BME280;5525;42.648;23.368;2023-12-20T03:07:43;94916.38;;;-1.26;100.00
10946;BME280;5525;42.648;23.368;2023-12-20T03:10:09;94911.00;;;-1.31;100.00
10946;BME280;5525;42.648;23.368;2023-12-20T03:12:36;94917.94;;;-1.47;100.00
10946;BME280;5525;42.648;23.368;2023-12-20T03:15:05;94918.31;;;-1.22;100.00
10946;BME280;5525;42.648;23.368;2023-12-20T03:17:32;94914.28;;;-1.24;100.00
10946;BME280;5525;42.648;23.368;2023-12-20T03:19:59;94916.59;;;-1.11;100.00
10946;BME280;5525;42.648;23.368;2023-12-20T03:22:25;94913.50;;;-1.03;100.00
10946;BME280;5525;42.648;23.368;2023-12-20T03:24:52;94912.78;;;-0.99;100.00
10946;BME280;5525;42.648;23.368;2023-12-20T03:27:19;94914.03;;;-1.01;100.00
10946;BME280;5525;42.648;23.368;2023-12-20T03:29:45;94900.44;;;-1.10;100.00
10946;BME280;5525;42.648;23.368;2023-12-20T03:32:14;94896.38;;;-0.96;100.00
10946;BME280;5525;42.648;23.368;2023-12-20T03:34:41;94898.97;;;-1.01;100.00
10946;BME280;5525;42.648;23.368;2023-12-20T03:37:07;94900.69;;;-0.90;100.00
10946;BME280;5525;42.648;23.368;2023-12-20T03:39:34;94901.53;;;-1.06;100.00
10946;BME280;5525;42.648;23.368;2023-12-20T03:42:01;94896.63;;;-1.19;100.00
10946;BME280;5525;42.648;23.368;2023-12-20T03:44:28;94901.53;;;-1.27;100.00
10946;BME280;5525;42.648;23.368;2023-12-20T03:46:55;94889.09;;;-1.05;100.00
10946;BME280;5525;42.648;23.368;2023-12-20T03:49:23;94892.31;;;-1.03;100.00
10946;BME280;5525;42.648;23.368;2023-12-20T03:51:50;94888.13;;;-0.99;100.00
10946;BME280;5525;42.648;23.368;2023-12-20T03:54:16;94895.56;;;-0.96;100.00
10946;BME280;5525;42.648;23.368;2023-12-20T03:56:43;94887.56;;;-1.01;100.00
10946;BME280;5525;42.648;23.368;2023-12-20T03:59:10;94887.25;;;-0.83;100.00
10946;BME280;5525;42.648;23.368;2023-12-20T04:01:37;94883.44;;;-0.92;100.00
10946;BME280;5525;42.648;23.368;2023-12-20T04:04:03;94875.84;;;-0.84;100.00
10946;BME280;5525;42.648;23.368;2023-12-20T04:06:32;94872.59;;;-0.91;100.00
10946;BME280;5525;42.648;23.368;2023-12-20T04:08:58;94880.81;;;-0.92;100.00
10946;BME280;5525;42.648;23.368;2023-12-20T04:11:25;94871.31;;;-1.10;100.00
10946;BME280;5525;42.648;23.368;2023-12-20T04:13:52;94864.19;;;-1.04;100.00
10946;BME280;5525;42.648;23.368;2023-12-20T04:16:19;94866.00;;;-0.88;100.00
10946;BME280;5525;42.648;23.368;2023-12-20T04:18:45;94865.31;;;-1.00;100.00
10946;BME280;5525;42.648;23.368;2023-12-20T04:21:12;94860.38;;;-0.92;100.00
10946;BME280;5525;42.648;23.368;2023-12-20T04:23:40;94859.69;;;-0.82;100.00
10946;BME280;5525;42.648;23.368;2023-12-20T04:26:07;94859.59;;;-0.92;100.00
10946;BME280;5525;42.648;23.368;2023-12-20T04:28:34;94864.69;;;-0.86;100.00
10946;BME280;5525;42.648;23.368;2023-12-20T04:31:01;94856.47;;;-0.84;100.00
10946;BME280;5525;42.648;23.368;2023-12-20T04:33:27;94851.81;;;-0.77;100.00
10946;BME280;5525;42.648;23.368;2023-12-20T04:35:55;94848.41;;;-0.73;100.00
10946;BME280;5525;42.648;23.368;2023-12-20T04:38:23;94837.88;;;-0.63;100.00
10946;BME280;5525;42.648;23.368;2023-12-20T04:40:51;94840.34;;;-0.56;100.00
10946;BME280;5525;42.648;23.368;2023-12-20T04:43:18;94832.94;;;-0.54;100.00
10946;BME280;5525;42.648;23.368;2023-12-20T04:45:44;94840.06;;;-0.86;100.00
10946;BME280;5525;42.648;23.368;2023-12-20T04:48:12;94840.47;;;-0.94;100.00
10946;BME280;5525;42.648;23.368;2023-12-20T04:50:39;94847.56;;;-1.00;100.00
10946;BME280;5525;42.648;23.368;2023-12-20T04:53:06;94834.78;;;-1.08;100.00
10946;BME280;5525;42.648;23.368;2023-12-20T04:55:32;94832.38;;;-1.09;100.00
10946;BME280;5525;42.648;23.368;2023-12-20T04:58:01;94832.78;;;-1.17;100.00
10946;BME280;5525;42.648;23.368;2023-12-20T05:00:27;94826.44;;;-1.38;100.00
10946;BME280;5525;42.648;23.368;2023-12-20T05:02:55;94828.59;;;-1.56;100.00
10946;BME280;5525;42.648;23.368;2023-12-20T05:05:22;94832.13;;;-1.67;100.00
10946;BME280;5525;42.648;23.368;2023-12-20T05:07:49;94826.22;;;-1.75;100.00
10946;BME280;5525;42.648;23.368;2023-12-20T05:10:16;94825.13;;;-1.79;100.00
10946;BME280;5525;42.648;23.368;2023-12-20T05:12:42;94832.59;;;-1.92;100.00
10946;BME280;5525;42.648;23.368;2023-12-20T05:15:11;94834.63;;;-2.32;100.00
10946;BME280;5525;42.648;23.368;2023-12-20T05:17:37;94823.81;;;-2.31;100.00
10946;BME280;5525;42.648;23.368;2023-12-20T05:20:05;94833.41;;;-2.41;100.00
10946;BME280;5525;42.648;23.368;2023-12-20T05:22:32;94826.03;;;-2.72;100.00
10946;BME280;5525;42.648;23.368;2023-12-20T05:24:59;94831.72;;;-2.47;100.00
10946;BME280;5525;42.648;23.368;2023-12-20T05:27:26;94818.56;;;-2.75;100.00
10946;BME280;5525;42.648;23.368;2023-12-20T05:29:52;94818.53;;;-3.20;100.00
10946;BME280;5525;42.648;23.368;2023-12-20T05:32:24;94819.59;;;-2.76;100.00
10946;BME280;5525;42.648;23.368;2023-12-20T05:34:51;94812.25;;;-2.74;100.00
10946;BME280;5525;42.648;23.368;2023-12-20T05:37:18;94807.81;;;-2.85;100.00
10946;BME280;5525;42.648;23.368;2023-12-20T05:39:45;94808.44;;;-2.95;100.00
10946;BME280;5525;42.648;23.368;2023-12-20T05:42:11;94817.72;;;-3.20;100.00
10946;BME280;5525;42.648;23.368;2023-12-20T05:44:38;94823.44;;;-3.12;100.00
10946;BME280;5525;42.648;23.368;2023-12-20T05:47:05;94806.53;;;-2.83;100.00
10946;BME280;5525;42.648;23.368;2023-12-20T05:49:33;94818.84;;;-2.88;100.00
10946;BME280;5525;42.648;23.368;2023-12-20T05:52:00;94807.03;;;-2.69;100.00
10946;BME280;5525;42.648;23.368;2023-12-20T05:54:27;94801.19;;;-2.55;100.00
10946;BME280;5525;42.648;23.368;2023-12-20T05:56:54;94818.25;;;-2.46;100.00
10946;BME280;5525;42.648;23.368;2023-12-20T05:59:21;94802.97;;;-2.60;100.00
10946;BME280;5525;42.648;23.368;2023-12-20T06:01:47;94805.28;;;-2.64;100.00
10946;BME280;5525;42.648;23.368;2023-12-20T06:04:14;94786.09;;;-3.04;100.00
10946;BME280;5525;42.648;23.368;2023-12-20T06:06:43;94782.47;;;-2.53;100.00
10946;BME280;5525;42.648;23.368;2023-12-20T06:09:10;94789.19;;;-2.46;100.00
10946;BME280;5525;42.648;23.368;2023-12-20T06:11:37;94789.25;;;-2.08;100.00
10946;BME280;5525;42.648;23.368;2023-12-20T06:14:04;94798.56;;;-2.22;100.00
10946;BME280;5525;42.648;23.368;2023-12-20T06:16:31;94792.72;;;-2.40;100.00
10946;BME280;5525;42.648;23.368;2023-12-20T06:18:58;94802.41;;;-2.29;100.00
10946;BME280;5525;42.648;23.368;2023-12-20T06:21:24;94808.81;;;-2.25;100.00
10946;BME280;5525;42.648;23.368;2023-12-20T06:23:53;94805.38;;;-2.09;100.00
10946;BME280;5525;42.648;23.368;2023-12-20T06:26:20;94802.06;;;-2.00;100.00
10946;BME280;5525;42.648;23.368;2023-12-20T06:28:47;94807.69;;;-2.13;100.00
10946;BME280;5525;42.648;23.368;2023-12-20T06:31:13;94809.16;;;-2.22;100.00
10946;BME280;5525;42.648;23.368;2023-12-20T06:33:40;94807.03;;;-2.03;100.00
10946;BME280;5525;42.648;23.368;2023-12-20T06:36:07;94806.31;;;-2.15;100.00
10946;BME280;5525;42.648;23.368;2023-12-20T06:38:34;94796.50;;;-1.98;100.00
10946;BME280;5525;42.648;23.368;2023-12-20T06:41:01;94798.91;;;-1.97;100.00
10946;BME280;5525;42.648;23.368;2023-12-20T06:43:28;94791.94;;;-2.03;100.00
10946;BME280;5525;42.648;23.368;2023-12-20T06:45:56;94787.22;;;-2.01;100.00
10946;BME280;5525;42.648;23.368;2023-12-20T06:48:23;94789.25;;;-2.08;100.00
10946;BME280;5525;42.648;23.368;2023-12-20T06:50:49;94773.44;;;-2.03;100.00
10946;BME280;5525;42.648;23.368;2023-12-20T06:53:16;94765.00;;;-2.00;100.00
10946;BME280;5525;42.648;23.368;2023-12-20T06:55:43;94771.00;;;-1.66;100.00
10946;BME280;5525;42.648;23.368;2023-12-20T06:58:11;94775.44;;;-1.93;100.00
10946;BME280;5525;42.648;23.368;2023-12-20T07:00:38;94766.66;;;-2.15;100.00
10946;BME280;5525;42.648;23.368;2023-12-20T07:03:05;94776.25;;;-1.93;100.00
10946;BME280;5525;42.648;23.368;2023-12-20T07:05:31;94764.00;;;-1.77;100.00
10946;BME280;5525;42.648;23.368;2023-12-20T07:07:58;94760.44;;;-1.66;100.00
10946;BME280;5525;42.648;23.368;2023-12-20T07:10:25;94757.50;;;-1.69;100.00
10946;BME280;5525;42.648;23.368;2023-12-20T07:12:52;94760.56;;;-1.78;100.00
10946;BME280;5525;42.648;23.368;2023-12-20T07:15:21;94757.34;;;-1.80;100.00
10946;BME280;5525;42.648;23.368;2023-12-20T07:17:48;94753.44;;;-1.77;100.00
10946;BME280;5525;42.648;23.368;2023-12-20T07:20:15;94755.19;;;-1.39;100.00
10946;BME280;5525;42.648;23.368;2023-12-20T07:22:42;94752.28;;;-1.16;100.00
10946;BME280;5525;42.648;23.368;2023-12-20T07:25:09;94749.72;;;-0.80;100.00
10946;BME280;5525;42.648;23.368;2023-12-20T07:27:36;94741.47;;;-0.83;100.00
10946;BME280;5525;42.648;23.368;2023-12-20T07:30:03;94744.06;;;-0.62;100.00
10946;BME280;5525;42.648;23.368;2023-12-20T07:32:32;94742.94;;;-0.66;100.00
10946;BME280;5525;42.648;23.368;2023-12-20T07:34:58;94737.13;;;-0.68;100.00
10946;BME280;5525;42.648;23.368;2023-12-20T07:37:25;94732.41;;;-0.24;100.00
10946;BME280;5525;42.648;23.368;2023-12-20T07:39:52;94731.53;;;0.07;100.00
10946;BME280;5525;42.648;23.368;2023-12-20T07:42:19;94739.72;;;0.00;100.00
10946;BME280;5525;42.648;23.368;2023-12-20T07:44:53;94739.28;;;0.14;100.00
10946;BME280;5525;42.648;23.368;2023-12-20T07:47:37;94745.63;;;0.08;100.00
10946;BME280;5525;42.648;23.368;2023-12-20T07:50:05;94742.34;;;-0.05;100.00
10946;BME280;5525;42.648;23.368;2023-12-20T07:52:35;94729.69;;;0.08;100.00
10946;BME280;5525;42.648;23.368;2023-12-20T07:55:02;94726.78;;;0.76;100.00
10946;BME280;5525;42.648;23.368;2023-12-20T07:57:29;94727.22;;;0.48;100.00
10946;BME280;5525;42.648;23.368;2023-12-20T07:59:56;94727.22;;;0.53;100.00
10946;BME280;5525;42.648;23.368;2023-12-20T08:02:23;94729.66;;;0.69;100.00
10946;BME280;5525;42.648;23.368;2023-12-20T08:04:51;94731.28;;;0.70;100.00
10946;BME280;5525;42.648;23.368;2023-12-20T08:07:18;94719.53;;;0.56;100.00
10946;BME280;5525;42.648;23.368;2023-12-20T08:09:44;94718.25;;;0.64;100.00
10946;BME280;5525;42.648;23.368;2023-12-20T08:12:11;94715.97;;;1.52;100.00
10946;BME280;5525;42.648;23.368;2023-12-20T08:14:38;94712.25;;;1.84;100.00
10946;BME280;5525;42.648;23.368;2023-12-20T08:17:05;94705.19;;;2.38;100.00
10946;BME280;5525;42.648;23.368;2023-12-20T08:19:32;94701.53;;;2.87;100.00
10946;BME280;5525;42.648;23.368;2023-12-20T08:22:00;94699.28;;;3.04;100.00
10946;BME280;5525;42.648;23.368;2023-12-20T08:24:27;94689.66;;;3.08;100.00
10946;BME280;5525;42.648;23.368;2023-12-20T08:26:54;94691.38;;;3.28;100.00
10946;BME280;5525;42.648;23.368;2023-12-20T08:29:21;94699.50;;;3.52;100.00
10946;BME280;5525;42.648;23.368;2023-12-20T08:31:52;94698.91;;;3.60;100.00
10946;BME280;5525;42.648;23.368;2023-12-20T08:34:19;94683.50;;;3.46;100.00
10946;BME280;5525;42.648;23.368;2023-12-20T08:36:46;94678.13;;;3.52;100.00
10946;BME280;5525;42.648;23.368;2023-12-20T08:39:14;94668.72;;;3.59;100.00
10946;BME280;5525;42.648;23.368;2023-12-20T08:41:40;94671.25;;;3.45;100.00
10946;BME280;5525;42.648;23.368;2023-12-20T08:44:07;94657.50;;;3.28;100.00
10946;BME280;5525;42.648;23.368;2023-12-20T08:46:34;94657.63;;;3.13;100.00
10946;BME280;5525;42.648;23.368;2023-12-20T08:49:01;94668.75;;;2.77;100.00
10946;BME280;5525;42.648;23.368;2023-12-20T08:51:29;94659.25;;;2.66;100.00
10946;BME280;5525;42.648;23.368;2023-12-20T08:53:56;94665.41;;;3.38;100.00
10946;BME280;5525;42.648;23.368;2023-12-20T08:56:25;94670.94;;;3.52;100.00
10946;BME280;5525;42.648;23.368;2023-12-20T08:58:52;94657.13;;;3.74;100.00
10946;BME280;5525;42.648;23.368;2023-12-20T09:01:18;94653.91;;;3.77;100.00
10946;BME280;5525;42.648;23.368;2023-12-20T09:03:45;94650.63;;;4.08;100.00
10946;BME280;5525;42.648;23.368;2023-12-20T09:06:12;94638.50;;;3.92;100.00
10946;BME280;5525;42.648;23.368;2023-12-20T09:08:39;94619.84;;;4.11;100.00
10946;BME280;5525;42.648;23.368;2023-12-20T09:11:06;94617.16;;;3.35;100.00
10946;BME280;5525;42.648;23.368;2023-12-20T09:13:34;94607.28;;;3.64;100.00
10946;BME280;5525;42.648;23.368;2023-12-20T09:16:01;94598.03;;;4.04;100.00
10946;BME280;5525;42.648;23.368;2023-12-20T09:18:28;94588.78;;;3.44;100.00
10946;BME280;5525;42.648;23.368;2023-12-20T09:20:54;94584.41;;;3.24;100.00
10946;BME280;5525;42.648;23.368;2023-12-20T09:23:21;94589.34;;;3.41;100.00
10946;BME280;5525;42.648;23.368;2023-12-20T09:25:48;94593.97;;;2.97;100.00
10946;BME280;5525;42.648;23.368;2023-12-20T09:28:15;94571.28;;;3.04;100.00
10946;BME280;5525;42.648;23.368;2023-12-20T09:30:43;94575.41;;;3.73;100.00
10946;BME280;5525;42.648;23.368;2023-12-20T09:33:11;94567.47;;;3.91;100.00
10946;BME280;5525;42.648;23.368;2023-12-20T09:35:38;94565.69;;;4.29;100.00
10946;BME280;5525;42.648;23.368;2023-12-20T09:38:05;94546.31;;;4.37;100.00
10946;BME280;5525;42.648;23.368;2023-12-20T09:40:32;94539.09;;;4.37;100.00
10946;BME280;5525;42.648;23.368;2023-12-20T09:43:03;94540.03;;;4.65;100.00
10946;BME280;5525;42.648;23.368;2023-12-20T09:45:31;94533.75;;;4.93;100.00
10946;BME280;5525;42.648;23.368;2023-12-20T09:47:59;94529.09;;;4.98;100.00
10946;BME280;5525;42.648;23.368;2023-12-20T09:50:26;94531.94;;;4.88;100.00
10946;BME280;5525;42.648;23.368;2023-12-20T09:52:53;94522.75;;;5.27;100.00
10946;BME280;5525;42.648;23.368;2023-12-20T09:55:22;94502.25;;;5.49;100.00
10946;BME280;5525;42.648;23.368;2023-12-20T09:57:49;94518.19;;;6.00;100.00
10946;BME280;5525;42.648;23.368;2023-12-20T10:00:16;94511.13;;;6.17;100.00
10946;BME280;5525;42.648;23.368;2023-12-20T10:02:50;94511.88;;;6.45;100.00
10946;BME280;5525;42.648;23.368;2023-12-20T10:05:23;94507.09;;;7.44;100.00
10946;BME280;5525;42.648;23.368;2023-12-20T10:07:52;94512.69;;;6.81;100.00
10946;BME280;5525;42.648;23.368;2023-12-20T10:10:19;94485.09;;;7.11;100.00
10946;BME280;5525;42.648;23.368;2023-12-20T10:13:01;94479.63;;;6.36;100.00
10946;BME280;5525;42.648;23.368;2023-12-20T10:15:28;94485.63;;;5.93;100.00
10946;BME280;5525;42.648;23.368;2023-12-20T10:17:56;94487.69;;;6.09;100.00
10946;BME280;5525;42.648;23.368;2023-12-20T10:20:24;94490.38;;;6.09;100.00
10946;BME280;5525;42.648;23.368;2023-12-20T10:22:52;94480.91;;;6.39;100.00
10946;BME280;5525;42.648;23.368;2023-12-20T10:25:20;94473.13;;;5.61;100.00
10946;BME280;5525;42.648;23.368;2023-12-20T10:27:47;94463.28;;;5.43;100.00
10946;BME280;5525;42.648;23.368;2023-12-20T10:30:14;94462.72;;;5.00;100.00
10946;BME280;5525;42.648;23.368;2023-12-20T10:32:41;94461.81;;;4.04;100.00
10946;BME280;5525;42.648;23.368;2023-12-20T10:35:08;94463.84;;;4.12;100.00
10946;BME280;5525;42.648;23.368;2023-12-20T10:37:37;94470.75;;;4.50;100.00
10946;BME280;5525;42.648;23.368;2023-12-20T10:40:05;94456.53;;;4.17;100.00
10946;BME280;5525;42.648;23.368;2023-12-20T10:42:32;94441.94;;;4.47;100.00
10946;BME280;5525;42.648;23.368;2023-12-20T10:45:00;94430.16;;;4.80;100.00
10946;BME280;5525;42.648;23.368;2023-12-20T10:47:28;94426.72;;;4.79;100.00
10946;BME280;5525;42.648;23.368;2023-12-20T10:49:59;94432.34;;;4.78;100.00
10946;BME280;5525;42.648;23.368;2023-12-20T10:52:27;94429.38;;;4.79;100.00
10946;BME280;5525;42.648;23.368;2023-12-20T10:54:57;94436.97;;;4.72;100.00
10946;BME280;5525;42.648;23.368;2023-12-20T10:57:26;94421.22;;;4.71;100.00
10946;BME280;5525;42.648;23.368;2023-12-20T10:59:54;94415.56;;;4.72;100.00
10946;BME280;5525;42.648;23.368;2023-12-20T11:02:22;94414.97;;;4.62;100.00
10946;BME280;5525;42.648;23.368;2023-12-20T11:04:53;94406.28;;;4.38;100.00
10946;BME280;5525;42.648;23.368;2023-12-20T11:07:25;94406.91;;;4.30;100.00
10946;BME280;5525;42.648;23.368;2023-12-20T11:10:00;94402.16;;;4.27;100.00
10946;BME280;5525;42.648;23.368;2023-12-20T11:12:36;94402.22;;;4.22;100.00
10946;BME280;5525;42.648;23.368;2023-12-20T11:15:05;94399.19;;;4.28;100.00
10946;BME280;5525;42.648;23.368;2023-12-20T11:17:33;94383.16;;;4.28;100.00
10946;BME280;5525;42.648;23.368;2023-12-20T11:20:10;94390.78;;;4.21;100.00
10946;BME280;5525;42.648;23.368;2023-12-20T11:22:37;94369.88;;;4.05;100.00
10946;BME280;5525;42.648;23.368;2023-12-20T11:25:09;94379.63;;;4.14;100.00
10946;BME280;5525;42.648;23.368;2023-12-20T11:27:39;94377.63;;;3.69;100.00
10946;BME280;5525;42.648;23.368;2023-12-20T11:30:07;94370.59;;;3.36;100.00
10946;BME280;5525;42.648;23.368;2023-12-20T11:32:35;94368.94;;;3.59;100.00
10946;BME280;5525;42.648;23.368;2023-12-20T11:35:17;94347.25;;;3.84;100.00
10946;BME280;5525;42.648;23.368;2023-12-20T11:37:45;94346.84;;;3.77;100.00
10946;BME280;5525;42.648;23.368;2023-12-20T11:40:16;94327.88;;;4.10;100.00
10946;BME280;5525;42.648;23.368;2023-12-20T11:42:44;94343.50;;;4.17;100.00
10946;BME280;5525;42.648;23.368;2023-12-20T11:45:13;94329.81;;;4.37;100.00
10946;BME280;5525;42.648;23.368;2023-12-20T11:47:42;94330.38;;;4.66;100.00
10946;BME280;5525;42.648;23.368;2023-12-20T11:50:09;94329.00;;;4.55;100.00
10946;BME280;5525;42.648;23.368;2023-12-20T11:52:36;94303.00;;;5.01;100.00
10946;BME280;5525;42.648;23.368;2023-12-20T11:55:03;94310.22;;;5.00;100.00
10946;BME280;5525;42.648;23.368;2023-12-20T11:57:32;94302.16;;;5.28;100.00
10946;BME280;5525;42.648;23.368;2023-12-20T11:59:59;94299.94;;;5.57;100.00
10946;BME280;5525;42.648;23.368;2023-12-20T12:02:26;94292.28;;;5.64;100.00
10946;BME280;5525;42.648;23.368;2023-12-20T12:04:52;94278.63;;;5.52;100.00
10946;BME280;5525;42.648;23.368;2023-12-20T12:07:20;94279.34;;;5.44;100.00
10946;BME280;5525;42.648;23.368;2023-12-20T12:09:47;94281.06;;;5.40;100.00
10946;BME280;5525;42.648;23.368;2023-12-20T12:12:15;94261.22;;;5.41;100.00
10946;BME280;5525;42.648;23.368;2023-12-20T12:14:44;94271.56;;;5.56;100.00
10946;BME280;5525;42.648;23.368;2023-12-20T12:17:11;94260.50;;;5.49;100.00
10946;BME280;5525;42.648;23.368;2023-12-20T12:19:38;94258.13;;;5.34;100.00
10946;BME280;5525;42.648;23.368;2023-12-20T12:22:06;94262.72;;;5.33;100.00
10946;BME280;5525;42.648;23.368;2023-12-20T12:24:35;94264.00;;;5.36;100.00
10946;BME280;5525;42.648;23.368;2023-12-20T12:27:03;94240.47;;;5.46;100.00
10946;BME280;5525;42.648;23.368;2023-12-20T12:29:29;94253.38;;;5.44;100.00
10946;BME280;5525;42.648;23.368;2023-12-20T12:31:58;94249.00;;;5.48;100.00
10946;BME280;5525;42.648;23.368;2023-12-20T12:34:27;94244.88;;;5.64;100.00
10946;BME280;5525;42.648;23.368;2023-12-20T12:36:54;94246.41;;;5.79;100.00
10946;BME280;5525;42.648;23.368;2023-12-20T12:39:20;94241.56;;;7.03;100.00
10946;BME280;5525;42.648;23.368;2023-12-20T12:41:47;94225.59;;;8.60;100.00
10946;BME280;5525;42.648;23.368;2023-12-20T12:44:14;94219.81;;;9.16;100.00
10946;BME280;5525;42.648;23.368;2023-12-20T12:46:41;94215.34;;;8.91;100.00
10946;BME280;5525;42.648;23.368;2023-12-20T12:49:09;94224.56;;;8.90;100.00
10946;BME280;5525;42.648;23.368;2023-12-20T12:51:36;94225.94;;;9.25;100.00
10946;BME280;5525;42.648;23.368;2023-12-20T12:54:03;94226.72;;;9.26;100.00
10946;BME280;5525;42.648;23.368;2023-12-20T12:56:30;94219.84;;;9.37;100.00